Terminal Aerodrome Forecast
Issued by NWS

Home | Current Version | Previous Version | Text Only | Print | Product List | Glossary On
Versions: 1 2 3 4 5 6 7 8 9 10 11 12 13 14 15 16 17 18 19 20 21 22 23 24 25 26
284
FTUS46 KOTX 090521
TAFMWH
TAF
KMWH 090521Z 0906/1006 36007KT P6SM SCT200
     FM090800 36005KT 4SM BR SCT004
     FM091400 36005KT 2SM BR BKN003
     FM092000 32005KT P6SM SKC=

USA.gov is the U.S. government's official web portal to all federal, state and local government web resources and services.